Tiempo atmosférico en la estación meteorológica de Estaca De Bares, A Coruña (80 m.)

Fecha
DESCASC
Temp. máxima en grados centígrados (hora)
DESCASC
Temp. mínima en grados centígrados (hora)
DESCASC
Temp. media en grados centígrados
DESCASC
Racha de viento máxima en m/sg (hora)
DESCASC
Velocidad máxima media en intervalos de 10 minutos(hora)
DESCASC
Precipitaciones diarias en mm
DESCASC
Precipitaciones de 00:00 a 06:00 en mm
DESCASC
Precipitaciones de 06:00 a 12:00 en mm
DESCASC
Precipitaciones de 12:00 a 18:00 en mm
DESCASC
Precipitaciones de 18:00 a 24:00 en mm
DESCASC
17-09-2017 18.2 (15:10) 13.5 (09:00) 15.9 13.61 (23:40) 11.39 (19:40) 2.6 0.4 1.4 0 0.8
16-09-2017 19.6 (14:20) 12.3 (03:20) 16 11.67 (17:20) 9.17 (17:30) 8.4 6 0.8 1 0.6
15-09-2017 20.1 (14:40) 12.5 (15:00) 16.3 13.61 (14:50) 7.78 (14:50) 3.6 0 0.8 2.6 0.2
14-09-2017 20.4 (17:10) 14.4 (00:00) 17.4 20.83 (02:40) 16.39 (02:20) 4.4 4.4 0 0 0
13-09-2017 22.2 (13:20) 18.6 (00:00) 20.4 21.39 (16:10) 18.61 (16:10) 0 0 0 0 0
12-09-2017 22 (16:00) 15.9 (00:00) 18.9 16.39 (23:59) 13.61 (16:40) 4 2 2 0 0
11-09-2017 21.1 (14:50) 16.2 (00:00) 18.7 19.17 (02:00) 16.39 (10:00) 5.2 5.2 0 0 0
10-09-2017 20.3 (12:40) 15.4 (00:00) 17.8 21.39 (18:20) 18.33 (18:30) 0 0 0 0 0
09-09-2017 19.7 (15:10) 15.2 (00:00) 17.5 18.61 (17:10) 13.89 (12:00) 2.6 0.2 0 2.2 0.2
08-09-2017 23.6 (15:10) 15 (00:00) 19.3 17.78 (19:00) 14.72 (19:00) -- 0 -- 0 0.2
07-09-2017 21.1 (15:40) 17.1 (00:00) 19.1 10 (01:20) 8.33 (00:10) 0 0 0 0 0
06-09-2017 21.8 (14:10) 17.1 (00:00) 19.4 11.94 (21:00) 9.72 (21:20) 0 0 0 0 0
05-09-2017 23.9 (13:10) 17.9 (00:00) 20.9 12.78 (16:10) 11.39 (16:10) 1 0 0 1 0
04-09-2017 21.7 (12:20) 17.4 (00:00) 19.6 16.39 (00:40) 13.89 (01:10) 1.8 1.4 0.4 0 0
03-09-2017 22.4 (16:10) 16 (00:00) 19.2 16.67 (13:10) 13.89 (17:00) 0 0 0 0 0
02-09-2017 20.5 (14:50) 15.9 (00:00) 18.2 12.5 (05:40) 9.17 (05:50) 0 0 0 0 0
01-09-2017 21.5 (14:40) 15.3 (00:00) 18.4 9.44 (23:10) 6.39 (21:50) 0 0 0 0 0
31-08-2017 20.8 (15:20) 15.6 (00:00) 18.2 9.44 (03:50) 6.67 (08:20) 1.2 0 1.2 0 0
30-08-2017 19 (15:50) 15.7 (00:00) 17.3 10 (06:20) 6.39 (06:20) 5.6 0.4 3.8 0.4 1
29-08-2017 21.6 (14:40) 18.4 (00:00) 20 10.28 (19:30) 7.22 (03:20) 0.8 0 0.6 0.2 0
28-08-2017 23.3 (17:20) 16.4 (00:00) 19.8 7.78 (02:20) 6.94 (02:20) 0 0 0 0 0
27-08-2017 22.7 (14:10) 16.5 (00:00) 19.6 18.33 (19:40) 13.61 (19:50) 10.4 0 0 0 10.4
26-08-2017 21.8 (11:40) 17.4 (00:00) 19.6 12.22 (20:10) 10 (19:20) 0 0 0 0 0
25-08-2017 23.6 (18:30) 17.7 (00:00) 20.7 9.17 (02:20) 6.67 (02:20) 0 0 0 0 0
24-08-2017 20.9 (17:40) 17.9 (00:00) 19.4 10.56 (04:00) 7.5 (04:20) 2.2 0.8 1.4 0 0
23-08-2017 21.9 (15:00) 18.2 (00:00) 20.1 10 (22:20) 7.5 (23:50) 0.2 0 0 0 0.2
22-08-2017 22.3 (18:00) 16.2 (00:00) 19.3 17.78 (13:10) 15.56 (13:10) 0 0 0 0 0

Gráficas

Temp. máximas Temp. mínimas Temp. medias Precipitaciones Rachas de viento máximas Velocidades máximas media en intervalos de 10 minutos

Datos horarios

Fecha y hora oficial Temperatura (ºC) Velocidad del viento (km/h) Dirección del viento Racha (km/h) Dirección de racha Precipitación (mm) Presión (hPa) Tendencia (hPa) Humedad (%)
2017-09-20 23:00:00 16.3 4 Sudoeste 8 Sur 0 1007.1 0.2 79
2017-09-20 22:00:00 16.3 8 Sur 9 Sur 0 1007.1 -0.2 79
2017-09-20 21:00:00 16.9 3 Sur 4 Sur 0 1006.8 -0.5 75
2017-09-20 20:00:00 18.6 3 Nordeste 8 Nordeste 0 1006.9 -0.8 69
2017-09-20 19:00:00 19.9 4 Sudeste 10 Este 0 1007.3 -0.9 67
2017-09-20 18:00:00 19.5 6 Nordeste 11 Nordeste 0 1007.3 -1.5 67
2017-09-20 17:00:00 19.6 8 Este 12 Nordeste 0 1007.7 -1.5 67
2017-09-20 16:00:00 20 8 Nordeste 13 Norte 0 1008.2 -1.4 66
2017-09-20 15:00:00 20.2 7 Norte 13 Norte 0 1008.8 -1.1 66
2017-09-20 14:00:00 20.6 5 Norte 11 Oeste 0 1009.2 -0.8 67
2017-09-20 13:00:00 19.3 7 Oeste 10 Oeste 0 1009.6 -0.3 70
2017-09-20 12:00:00 18.4 3 Oeste 8 Oeste 0 1009.9 -0.2 72
2017-09-20 11:00:00 17.7 3 Noroeste 6 Este 0 1010 -0.2 74
2017-09-20 10:00:00 16.9 0 Calma 6 Oeste 0 1009.9 -0.4 80
2017-09-20 09:00:00 15.2 5 Oeste 9 Oeste 0 1010.1 -0.8 81
2017-09-20 08:00:00 14.9 6 Sudeste 8 Sudeste 0 1010.2 -1 81
2017-09-20 07:00:00 14.9 3 Nordeste 6 Este 0 1010.3 -1.3 81
2017-09-20 06:00:00 15 4 Oeste 6 Oeste 0 1010.9 -1.1 81
2017-09-20 05:00:00 15.5 4 Sudeste 10 Sudeste 0 1011.2 -1.2 77
2017-09-20 04:00:00 15.4 3 Sudoeste 15 Sudeste 0 1011.6 -1.2 80
2017-09-20 03:00:00 15.5 12 Sudeste 16 Sudeste 0 1012 -1.2 79
2017-09-20 02:00:00 15.3 14 Sudeste 17 Sudeste 0 1012.4 -0.8 80
2017-09-20 01:00:00 15.5 15 Sudeste 18 Sudeste 0 1012.8 -0.5 79
2017-09-20 00:00:00 15.9 14 Sudeste 20 Sudeste 0 1013.2 0.2 79
2017-09-19 23:00:00 16.2 16 Sudeste 20 Sudeste 0 1013.2 0.1 79
2017-09-19 22:00:00 16.4 17 Sudeste 23 Sudeste 0 1013.3 0.1 77
2017-09-19 21:00:00 16.6 17 Sudeste 22 Este 0 1013 -0.2 75
2017-09-19 20:00:00 17.6 15 Sudeste 23 Sudeste 0 1013.1 -0.6 71
2017-09-19 19:00:00 18.5 16 Este 22 Este 0 1013.2 -0.7 69
2017-09-19 18:00:00 19.1 16 Este 22 Este 0 1013.2 -1 67
2017-09-19 17:00:00 19 16 Este 22 Este 0 1013.7 -0.8 69
2017-09-19 16:00:00 19.6 15 Este 20 Este 0 1013.9 -0.6 66
2017-09-19 15:00:00 19.2 14 Este 21 Este 0 1014.2 -0.4 69
2017-09-19 14:00:00 19.9 14 Este 18 Este 0 1014.5 -0.1 67
2017-09-19 13:00:00 19.6 13 Este 15 Este 0 1014.5 0.3 70
2017-09-19 12:00:00 19.2 10 Este 14 Este 0 1014.6 0.7 68
2017-09-19 11:00:00 18.4 6 Este 14 Este 0 1014.6 1 72
2017-09-19 10:00:00 16.9 4 Este 6 Este 0 1014.2 0.7 82
2017-09-19 09:00:00 15.4 0 Calma 5 Norte 0 1013.9 0.3 83
2017-09-19 08:00:00 15.6 4 Nordeste 10 Este 0 1013.6 -0.1 80
2017-09-19 07:00:00 15.5 8 Este 12 Este 0 1013.5 -0.3 81
2017-09-19 06:00:00 15.3 5 Este 13 Este 0 1013.6 -0.6 81
2017-09-19 05:00:00 15.8 10 Sudeste 13 Sudeste 0 1013.7 -0.3 78
2017-09-19 04:00:00 15.5 13 Sudeste 14 Sudeste 0 1013.8 -0.2 80
2017-09-19 03:00:00 15.7 10 Sudeste 16 Sudeste 0 1014.2 0.1 81
2017-09-19 02:00:00 15.9 13 Sudeste 18 Sudeste 0 1014 0.2 79
2017-09-19 01:00:00 16.2 12 Sudeste 21 Sudeste 0 1014 0.4 77
2017-09-19 00:00:00 16.5 12 Sudeste 22 Este 0 1014.1 1 76
2017-09-18 23:00:00 16.2 13 Este 18 Este 0 1013.8 1 76
2017-09-18 22:00:00 16.1 13 Sudeste 23 Este 0 1013.6 1.2 78
2017-09-18 21:00:00 16.7 17 Este 24 Este 0 1013.1 1.3 76
2017-09-18 20:00:00 16.8 18 Nordeste 24 Nordeste 0 1012.8 1.3 76
2017-09-18 19:00:00 17.2 17 Este 24 Este 0 1012.4 1.3 74
2017-09-18 18:00:00 18.6 17 Este 27 Este 0 1011.8 1 75
2017-09-18 17:00:00 17.9 16 Nordeste 28 Este 0 1011.5 1.4 77
2017-09-18 16:00:00 17.4 19 Nordeste 31 Nordeste 0 1011.1 1.6 78
2017-09-18 15:00:00 17.4 15 Nordeste 35 Nordeste 0 1010.8 2.1 81
2017-09-18 14:00:00 17.5 22 Nordeste 34 Norte 0 1010.1 2.4 82
2017-09-18 13:00:00 17.3 18 Norte 32 Norte 0 1009.5 2.9 83
2017-09-18 12:00:00 17.2 12 Noroeste 33 Noroeste 0 1008.7 2.7 86
2017-09-18 11:00:00 17.2 26 Oeste 47 Oeste 1.2 1007.7 2.3 86
2017-09-18 10:00:00 17.2 42 Oeste 52 Oeste 0 1006.6 1.8 85
2017-09-18 09:00:00 16.5 36 Oeste 46 Oeste 0.2 1006 1.6 86
2017-09-18 08:00:00 16.3 37 Oeste 50 Oeste 0 1005.4 1.1 84
2017-09-18 07:00:00 15.9 41 Oeste 53 Oeste 0 1004.8 0.4 84
2017-09-18 06:00:00 15.6 48 Oeste 58 Sudoeste 0 1004.4 -0.4 83
2017-09-18 05:00:00 16 50 Oeste 63 Oeste 0 1004.3 -1.1 81
2017-09-18 04:00:00 15.4 44 Sudoeste 59 Sudoeste 0 1004.4 -0.9 83
2017-09-18 03:00:00 14.7 36 Oeste 48 Oeste 0.2 1004.8 -0.6 85
2017-09-18 02:00:00 14.6 38 Sudoeste 55 Oeste 1.8 1005.4 -2 84
2017-09-18 01:00:00 15 45 Oeste 57 Sudoeste 0 1005.3 -1.9 78
2017-09-18 00:00:00 14.3 31 Sudoeste 49 Oeste 0.2 1005.4 -1.7 80
2017-09-17 23:00:00 14.8 30 Oeste 43 Oeste 0 1007.4 0.3 81
2017-09-17 22:00:00 15 27 Sudoeste 41 Sudoeste 0.6 1007.2 -0.3 79
2017-09-17 21:00:00 16.1 27 Oeste 39 Sudoeste 0 1007.1 -0.3 71
2017-09-17 20:00:00 16.7 30 Oeste 48 Oeste 0 1007.1 -0.5 71
2017-09-17 19:00:00 16.8 26 Oeste 43 Oeste 0 1007.5 -0.2 71
2017-09-17 18:00:00 16.8 36 Oeste 46 Sudoeste 0 1007.4 -0.6 69
2017-09-17 17:00:00 17 31 Oeste 36 Oeste 0 1007.6 -0.6 68
2017-09-17 16:00:00 17 27 Oeste 37 Oeste 0 1007.7 -0.8 71
2017-09-17 15:00:00 17.7 27 Oeste 38 Oeste 0 1008 -0.4 67
2017-09-17 14:00:00 17.4 39 Oeste 46 Oeste 0 1008.2 -0.2 68
2017-09-17 13:00:00 17 32 Oeste 39 Oeste 0 1008.5 0.8 72
2017-09-17 12:00:00 16.2 32 Oeste 41 Oeste 0 1008.4 0.7 77
2017-09-17 11:00:00 14.2 30 Oeste 47 Oeste 0.4 1008.4 1.3 84
2017-09-17 10:00:00 14 30 Oeste 38 Oeste 0 1007.7 0.7 82
2017-09-17 09:00:00 13.5 33 Oeste 48 Sudoeste 1 1007.7 0.7 85
2017-09-17 08:00:00 14.2 31 Oeste 39 Sudoeste 0 1007.1 0.1 78
2017-09-17 07:00:00 14.2 29 Oeste 36 Oeste 0 1007 -0.2 76
2017-09-17 06:00:00 14 28 Oeste 36 Oeste 0.4 1007 -0.5 78
2017-09-17 05:00:00 14.6 24 Oeste 34 Oeste 0 1007 -0.9 71
2017-09-17 04:00:00 14.8 27 Oeste 34 Oeste 0 1007.2 -0.7 71
2017-09-17 03:00:00 14.9 24 Oeste 30 Oeste 0 1007.5 -0.7 70
2017-09-17 02:00:00 14.6 25 Oeste 36 Oeste 0 1007.9 -0.2 70
2017-09-17 01:00:00 15.7 31 Oeste 38 Noroeste 0 1007.9 -0.1 61
2017-09-17 00:00:00 15.9 29 Noroeste 38 Noroeste 0 1008.2 0.3 64
2017-09-16 23:00:00 15.5 27 Oeste 37 Noroeste 0 1008.1 0.1 66
2017-09-16 22:00:00 15.4 28 Oeste 33 Oeste 0 1008 0.1 64
2017-09-16 21:00:00 15.2 21 Noroeste 32 Noroeste 0 1007.9 0.2 64
2017-09-16 20:00:00 14.7 19 Oeste 29 Oeste 0.6 1008 0.2 75
2017-09-16 19:00:00 15.9 24 Oeste 32 Noroeste 0 1007.9 -0.4 67
2017-09-16 18:00:00 15.9 26 Noroeste 42 Noroeste 0 1007.7 -0.4 61
2017-09-16 17:00:00 16.5 21 Noroeste 33 Oeste 0 1007.8 -0.7 61
2017-09-16 16:00:00 16.2 8 Noroeste 32 Noroeste 1 1008.3 -0.5 70
2017-09-16 15:00:00 18.7 23 Oeste 28 Oeste 0 1008.1 -0.6 56
2017-09-16 14:00:00 19.2 20 Oeste 28 Oeste 0 1008.5 -0.1 61
2017-09-16 13:00:00 17.9 20 Oeste 24 Oeste 0 1008.8 0.6 67
2017-09-16 12:00:00 14.9 6 Noroeste 34 Norte 0.8 1008.7 1 73
2017-09-16 11:00:00 16.1 18 Oeste 32 Oeste 0 1008.6 1.4 72
2017-09-16 10:00:00 14.2 20 Oeste 31 Oeste 0 1008.2 1 79
2017-09-16 09:00:00 13.2 18 Oeste 28 Oeste 0 1007.7 0.2 80
2017-09-16 08:00:00 12.7 18 Oeste 30 Oeste 0 1007.2 -0.3 83
2017-09-16 07:00:00 13.2 11 Sudoeste 24 Oeste 0 1007.2 -0.7 77
2017-09-16 06:00:00 13 15 Oeste 24 Oeste 0 1007.5 -1 81
2017-09-16 05:00:00 12.7 17 Oeste 25 Oeste 0 1007.5 -1.2 82
2017-09-16 04:00:00 12.9 12 Oeste 16 Sudoeste 0 1007.9 -1.5 81
2017-09-16 03:00:00 12.7 6 Sudoeste 32 Noroeste 5.2 1008.5 -0.7 81
2017-09-16 02:00:00 14 17 Oeste 24 Oeste 0 1008.7 -0.7 74
2017-09-16 01:00:00 14.1 8 Norte 35 Norte 0.8 1009.4 -0.2 71
2017-09-16 00:00:00 15.2 16 Norte 36 Norte 0 1009.2 -0.1 67
2017-09-15 23:00:00 15.3 12 Norte 24 Norte 0 1009.4 0.1 64
2017-09-15 22:00:00 15.1 12 Norte 25 Norte 0 1009.6 0.3 60
2017-09-15 21:00:00 14.7 10 Norte 39 Norte 0.2 1009.3 -0.2 67
2017-09-15 20:00:00 16.1 13 Norte 29 Norte 0 1009.3 -0.4 60
2017-09-15 19:00:00 16.4 10 Norte 22 Norte 0 1009.3 -0.5 63
2017-09-15 18:00:00 17.9 4 Noroeste 25 Nordeste 0 1009.5 -1 61
2017-09-15 17:00:00 14.6 18 Norte 37 Noroeste 0.6 1009.7 -0.8 67
2017-09-15 16:00:00 17.8 3 Este 10 Este 0 1009.8 -0.9 62
2017-09-15 15:00:00 12.9 10 Nordeste 49 Norte 2 1010.5 -0.3 81
2017-09-15 14:00:00 18.6 8 Noroeste 23 Norte 0 1010.5 -0.2 49
2017-09-15 13:00:00 18.1 13 Norte 33 Norte 0 1010.7 0.4 53
2017-09-15 12:00:00 17 16 Norte 28 Norte 0 1010.8 0.8 54
2017-09-15 11:00:00 15.9 19 Norte 29 Nordeste 0 1010.7 0.7 60
2017-09-15 10:00:00 15.6 15 Norte 43 Norte 0.4 1010.3 0.1 70
2017-09-15 09:00:00 14.9 19 Norte 43 Nordeste 0.4 1010 -0.5 73
2017-09-15 08:00:00 15.3 12 Norte 26 Norte 0 1010 -0.9 57
2017-09-15 07:00:00 15.4 12 Norte 27 Norte 0 1010.2 -1.2 56
2017-09-15 06:00:00 15.5 13 Noroeste 28 Noroeste 0 1010.5 -1.1 58
2017-09-15 05:00:00 15.7 15 Norte 33 Norte 0 1010.9 -0.9 60
2017-09-15 04:00:00 15.4 18 Norte 37 Nordeste 0 1011.4 -0.9 68
2017-09-15 03:00:00 15.9 18 Norte 33 Norte 0 1011.6 -0.8 68
2017-09-15 02:00:00 15.9 22 Norte 32 Norte 0 1011.8 -1.1 66
2017-09-15 01:00:00 15.8 20 Norte 33 Norte 0 1012.3 -0.8 69
2017-09-15 00:00:00 16.2 12 Noroeste 25 Norte 0 1012.4 -0.5 64
2017-09-14 23:00:00 16.1 15 Norte 23 Norte 0 1012.9 -0.1 66
2017-09-14 22:00:00 16.3 14 Noroeste 24 Noroeste 0 1013.1 0 61
2017-09-14 21:00:00 16.2 11 Norte 22 Norte 0 1012.9 -0.5 55
2017-09-14 20:00:00 17.8 13 Noroeste 24 Norte 0 1013 -1 50
2017-09-14 19:00:00 18.1 12 Norte 24 Norte 0 1013.1 -1.4 49
2017-09-14 18:00:00 20.3 6 Noroeste 19 Norte 0 1013.4 -1.5 43
2017-09-14 17:00:00 20 8 Noroeste 19 Norte 0 1014 -1.1 46
2017-09-14 16:00:00 19.4 10 Norte 21 Norte 0 1014.5 -1 50
2017-09-14 15:00:00 19.2 10 Norte 20 Norte 0 1014.9 -0.6 46
2017-09-14 14:00:00 18 12 Norte 23 Norte 0 1015.1 0.3 55
2017-09-14 13:00:00 18.1 13 Norte 26 Nordeste 0 1015.5 1.5 47
2017-09-14 12:00:00 17.6 15 Norte 30 Norte 0 1015.5 1.8 48
2017-09-14 11:00:00 16.7 19 Norte 34 Norte 0 1014.8 1.6 51
2017-09-14 10:00:00 16.6 18 Norte 32 Norte 0 1014 1.5 60
2017-09-14 09:00:00 16.5 17 Norte 29 Norte 0 1013.7 1.7 66
2017-09-14 08:00:00 16 12 Noroeste 33 Noroeste 0 1013.2 1.6 64
2017-09-14 07:00:00 16 18 Noroeste 36 Noroeste 0 1012.5 1.8 67
2017-09-14 06:00:00 15.6 21 Noroeste 37 Noroeste 0.2 1012 2 79
2017-09-14 05:00:00 15 18 Noroeste 39 Noroeste 1.4 1011.6 3.3 90
2017-09-14 04:00:00 15.1 32 Noroeste 50 Noroeste 1.4 1010.7 2 90
2017-09-14 03:00:00 16.8 25 Noroeste 75 Noroeste 1.4 1010 0.7 89
2017-09-14 02:00:00 19 56 Oeste 64 Oeste 0 1008.3 -1.1 79
2017-09-14 01:00:00 19.2 50 Oeste 59 Oeste 0 1008.7 -0.9 78
2017-09-14 00:00:00 19.2 42 Oeste 51 Oeste 0 1009.3 0.5 78
2017-09-13 23:00:00 19.4 37 Oeste 52 Oeste 0 1009.4 0.7 78
2017-09-13 22:00:00 19.5 34 Oeste 49 Oeste 0 1009.6 0.9 76
2017-09-13 21:00:00 19.7 45 Oeste 57 Sudoeste 0 1008.8 -0.1 71
2017-09-13 20:00:00 20.4 46 Oeste 61 Oeste 0 1008.7 -0.7 71
2017-09-13 19:00:00 20.5 54 Oeste 64 Oeste 0 1008.7 -0.4 68
2017-09-13 18:00:00 20.1 51 Oeste 59 Oeste 0 1008.9 -0.8 72
2017-09-13 17:00:00 19.9 54 Oeste 77 Oeste 0 1009.4 -0.9 80
2017-09-13 16:00:00 21.3 59 Oeste 69 Oeste 0 1009.1 -1.1 76
2017-09-13 15:00:00 21.5 45 Oeste 53 Oeste 0 1009.7 -0.5 73
2017-09-13 14:00:00 21.3 35 Oeste 50 Oeste 0 1010.3 0.1 73
2017-09-13 13:00:00 22 44 Oeste 52 Oeste 0 1010.2 0.5 70
2017-09-13 12:00:00 20.4 46 Oeste 55 Oeste 0 1010.2 0.6 77
2017-09-13 11:00:00 20.5 42 Oeste 54 Oeste 0 1010.2 0.9 75
2017-09-13 10:00:00 19.6 44 Oeste 53 Oeste 0 1009.7 0.5 76
2017-09-13 09:00:00 18.8 41 Oeste 49 Oeste 0 1009.6 0.5 80
2017-09-13 08:00:00 18.7 44 Oeste 53 Sudoeste 0 1009.3 -0.1 79
2017-09-13 07:00:00 18.8 42 Oeste 51 Oeste 0 1009.2 -0.5 80
2017-09-13 06:00:00 18.9 46 Oeste 54 Sudoeste 0 1009.1 -1 77
2017-09-13 05:00:00 18.8 37 Oeste 44 Oeste 0 1009.4 -0.9 78
2017-09-13 04:00:00 18.8 34 Oeste 46 Oeste 0 1009.7 -0.7 79
2017-09-13 03:00:00 19 39 Oeste 45 Oeste 0 1010.1 0.1 80
2017-09-13 02:00:00 18.9 38 Oeste 46 Oeste 0 1010.3 0.1 78
2017-09-13 01:00:00 18.8 39 Oeste 56 Oeste 0 1010.4 0.4 79
2017-09-13 00:00:00 19.1 49 Oeste 59 Oeste 0 1010 0.4 77
2017-09-12 23:00:00 18.9 43 Oeste 51 Oeste 0 1010.2 1.2 80
2017-09-12 22:00:00 19.2 40 Oeste 49 Oeste 0 1010 1.1 79
2017-09-12 21:00:00 19.4 30 Oeste 46 Oeste 0 1009.6 0.8 78
2017-09-12 20:00:00 20 39 Oeste 46 Oeste 0 1009 0.2 75
2017-09-12 19:00:00 20.4 35 Oeste 46 Oeste 0 1008.9 0.4 74
2017-09-12 18:00:00 20.9 35 Oeste 49 Oeste 0 1008.8 0.2 75
2017-09-12 17:00:00 20.7 42 Oeste 58 Oeste 0 1008.8 0 73
2017-09-12 16:00:00 21.7 44 Oeste 50 Oeste 0 1008.5 -0.6 69
2017-09-12 15:00:00 21.1 41 Oeste 45 Oeste 0 1008.6 -0.1 74
2017-09-12 14:00:00 20.5 31 Oeste 36 Oeste 0 1008.8 1.2 79
2017-09-12 13:00:00 18.2 16 Oeste 21 Noroeste 0 1009.1 1.8 88
2017-09-12 12:00:00 17.8 10 Noroeste 36 Oeste 0 1008.7 1.8 88
2017-09-12 11:00:00 17.9 25 Oeste 33 Oeste 0.2 1007.6 1.1 88
2017-09-12 10:00:00 16.7 5 Oeste 23 Oeste 0.6 1007.3 1 89
2017-09-12 09:00:00 16.3 17 Oeste 24 Sudoeste 0 1006.9 0.7 89
2017-09-12 08:00:00 15.9 22 Oeste 31 Oeste 0.4 1006.5 0 90
2017-09-12 07:00:00 15.9 27 Oeste 39 Oeste 0.8 1006.3 -0.5 89
2017-09-12 06:00:00 15.9 29 Oeste 37 Oeste 1.4 1006.2 -0.9 89
2017-09-12 05:00:00 16.1 31 Oeste 39 Oeste 0.2 1006.5 -0.7 86
2017-09-12 04:00:00 16.3 21 Oeste 35 Sudoeste 0.4 1006.8 -0.4 86
2017-09-12 03:00:00 16.5 25 Oeste 38 Oeste 0 1007.1 -0.3 84
2017-09-12 02:00:00 16.4 22 Oeste 44 Oeste 0 1007.2 -0.4 84
2017-09-12 01:00:00 16.5 31 Oeste 38 Sudoeste 0 1007.2 0.4 81
2017-09-12 00:00:00 16.4 25 Oeste 32 Sudoeste 0 1007.4 1.5 81
2017-09-11 23:00:00 16.5 29 Oeste 55 Oeste 0 1007.6 1.7 81
2017-09-11 22:00:00 17.4 43 Oeste 60 Oeste 0 1006.8 1.1 72
2017-09-11 21:00:00 18 54 Oeste 62 Oeste 0 1005.9 0.3 68
2017-09-11 20:00:00 18.2 54 Oeste 62 Oeste 0 1005.9 0.7 63
2017-09-11 19:00:00 18.5 58 Oeste 67 Oeste 0 1005.7 0.3 65
2017-09-11 18:00:00 18.9 53 Oeste 66 Oeste 0 1005.6 -0.3 64
2017-09-11 17:00:00 19.4 55 Oeste 65 Oeste 0 1005.2 -0.9 63
2017-09-11 16:00:00 20.4 50 Oeste 59 Oeste 0 1005.4 -0.6 59
2017-09-11 15:00:00 20.3 45 Oeste 53 Oeste 0 1005.9 0.2 60
2017-09-11 14:00:00 20.4 47 Oeste 54 Oeste 0 1006.1 0.5 57
2017-09-11 13:00:00 19.7 49 Oeste 57 Oeste 0 1006 1.4 63
2017-09-11 12:00:00 20 46 Oeste 51 Oeste 0 1005.7 1.3 64
2017-09-11 11:00:00 18.6 42 Oeste 63 Oeste 0 1005.6 1.4 67
2017-09-11 10:00:00 18 59 Oeste 66 Oeste 0 1004.6 1.1 66
2017-09-11 09:00:00 17.7 54 Oeste 61 Oeste 0 1004.4 0.8 71
2017-09-11 08:00:00 17.7 48 Oeste 59 Oeste 0 1004.2 0.5 77
2017-09-11 07:00:00 17.6 51 Oeste 61 Oeste 0 1003.5 -0.4 75
2017-09-11 06:00:00 17.9 50 Oeste 60 Oeste 0 1003.6 -0.1 81
2017-09-11 05:00:00 17 53 Oeste 64 Oeste 0.2 1003.7 0.1 81
2017-09-11 04:00:00 17.2 45 Oeste 61 Oeste 0.8 1003.9 0.3 90
2017-09-11 03:00:00 17.8 45 Oeste 69 Oeste 1.8 1003.7 0.1 91
2017-09-11 02:00:00 17.7 49 Oeste 69 Oeste 2.4 1003.6 0 89
2017-09-11 01:00:00 18 48 Oeste 62 Oeste 0 1003.6 0.3 89
2017-09-11 00:00:00 18 51 Oeste 60 Oeste 0 1003.6 0 88
2017-09-10 23:00:00 18.3 54 Oeste 67 Oeste 0 1003.6 0.2 85
2017-09-10 22:00:00 18.4 57 Oeste 66 Oeste 0 1003.3 0.2 84
2017-09-10 21:00:00 18.4 55 Oeste 69 Oeste 0 1003.6 0.2 82
2017-09-10 20:00:00 18.6 57 Oeste 77 Sudoeste 0 1003.4 -0.7 79
2017-09-10 19:00:00 18.8 63 Oeste 77 Oeste 0 1003.1 -1.4 75
2017-09-10 18:00:00 19.1 61 Oeste 72 Oeste 0 1003.4 -1.9 70
2017-09-10 17:00:00 19.6 57 Oeste 71 Oeste 0 1004.1 -1.8 65
2017-09-10 16:00:00 19.5 60 Oeste 68 Oeste 0 1004.5 -1.7 60
2017-09-10 15:00:00 19 52 Oeste 63 Oeste 0 1005.3 -0.8 65
2017-09-10 14:00:00 18.9 50 Oeste 59 Oeste 0 1005.9 -0.3 62
2017-09-10 13:00:00 18.9 41 Oeste 46 Oeste 0 1006.2 0.2 66
2017-09-10 12:00:00 19.4 35 Oeste 50 Oeste 0 1006.1 0.5 63
2017-09-10 11:00:00 18.4 32 Oeste 38 Oeste 0 1006.2 0.6 66
2017-09-10 10:00:00 17.5 29 Oeste 36 Oeste 0 1006 0.5 68
2017-09-10 09:00:00 16.1 30 Oeste 37 Sudoeste 0 1005.6 0.1 72
2017-09-10 08:00:00 15.4 23 Oeste 27 Oeste 0 1005.6 0.2 71
2017-09-10 07:00:00 15.9 22 Oeste 31 Oeste 0 1005.5 -0.4 69
2017-09-10 06:00:00 16.9 19 Noroeste 36 Noroeste 0 1005.5 -0.2 60
2017-09-10 05:00:00 16.7 23 Noroeste 35 Noroeste 0 1005.4 -0.6 56
2017-09-10 04:00:00 16.7 15 Noroeste 35 Noroeste 0 1005.9 0 64
2017-09-10 03:00:00 16.6 26 Noroeste 37 Noroeste 0 1005.7 0.2 71
2017-09-10 02:00:00 16.6 11 Noroeste 27 Noroeste 0 1006 1 69
2017-09-10 01:00:00 16.5 15 Noroeste 33 Noroeste 0 1005.9 1.3 67
2017-09-10 00:00:00 16.7 22 Noroeste 49 Oeste 0 1005.5 1.4 64
2017-09-09 23:00:00 16.8 26 Noroeste 38 Noroeste 0 1005 1.5 68
2017-09-09 22:00:00 16.8 31 Noroeste 40 Noroeste 0 1004.6 1.4 68
2017-09-09 21:00:00 16.8 17 Noroeste 52 Noroeste 0 1004.1 0.6 69
2017-09-09 20:00:00 17.5 30 Noroeste 54 Noroeste 0.2 1003.5 -0.1 64
2017-09-09 19:00:00 17.9 27 Noroeste 48 Noroeste 0 1003.2 -0.1 65
2017-09-09 18:00:00 17 33 Noroeste 67 Oeste 1.4 1003.5 0.1 79
2017-09-09 17:00:00 17.8 21 Noroeste 57 Oeste 0.8 1003.6 0.1 71
2017-09-09 16:00:00 19.3 44 Oeste 53 Oeste 0 1003.3 -0.2 59
2017-09-09 15:00:00 19.4 44 Oeste 53 Noroeste 0 1003.4 0.8 54
2017-09-09 14:00:00 19.2 19 Noroeste 44 Noroeste 0 1003.5 1 60
2017-09-09 13:00:00 19 26 Noroeste 59 Oeste 0 1003.5 1.2 64
2017-09-09 12:00:00 18.7 50 Noroeste 64 Oeste 0 1002.6 0.4 63
2017-09-09 11:00:00 18.1 48 Oeste 55 Oeste 0 1002.5 0.8 58
2017-09-09 10:00:00 17.6 39 Noroeste 55 Oeste 0 1002.3 0.6 66
2017-09-09 09:00:00 17.5 46 Oeste 55 Noroeste 0 1002.2 0.2 63
2017-09-09 08:00:00 17.5 44 Noroeste 58 Oeste 0 1001.7 -0.5 58
2017-09-09 07:00:00 17.5 37 Noroeste 50 Noroeste 0 1001.7 0 64
2017-09-09 06:00:00 16.8 44 Oeste 59 Oeste 0 1002 -0.2 71
2017-09-09 05:00:00 17.6 37 Noroeste 54 Noroeste 0 1002.2 -0.2 62
2017-09-09 04:00:00 17.6 45 Noroeste 59 Noroeste 0 1001.7 -0.6 65
2017-09-09 03:00:00 17.7 24 Noroeste 56 Oeste 0 1002.2 -0.1 70
2017-09-09 02:00:00 18 39 Noroeste 58 Noroeste 0 1002.4 -0.1 74
2017-09-09 01:00:00 17.7 29 Noroeste 58 Noroeste 0.2 1002.3 -0.4 79
2017-09-09 00:00:00 18.1 45 Oeste 55 Oeste 0 1002.3 0.4 84
2017-09-08 23:00:00 17.4 39 Oeste 55 Oeste 0 1002.5 0.2 86
2017-09-08 22:00:00 17.6 37 Oeste 59 Oeste 0.2 1002.7 0 86
2017-09-08 21:00:00 17.7 49 Oeste 60 Oeste 0 1001.9 -0.8 84
2017-09-08 20:00:00 18.3 46 Oeste 59 Oeste 0 1002.3 -1.1 79
2017-09-08 19:00:00 18.9 53 Oeste 64 Oeste 0 1002.7 -1 74
2017-09-08 18:00:00 20.3 42 Oeste 55 Oeste 0 1002.7 -1.8 66
2017-09-08 17:00:00 20.4 47 Oeste 56 Oeste 0 1003.4 -1.8 65
2017-09-08 16:00:00 21.5 42 Oeste 55 Oeste 0 1003.7 -2.8 60
2017-09-08 15:00:00 23.3 29 Oeste 35 Oeste 0 1004.5 -1.8 53
2017-09-08 14:00:00 22.3 27 Oeste 38 Oeste 0 1005.2 -1.4 58
2017-09-08 13:00:00 21.5 28 Oeste 31 Oeste 0 1006.5 -0.2 58
2017-09-08 12:00:00 20.6 23 Oeste 28 Oeste 0 1006.3 -0.7 62
2017-09-08 11:00:00 19.9 15 Oeste 19 Oeste 0 1006.6 -- 64
2017-09-08 10:00:00 17.1 9 Sudoeste 15 Sudoeste 0 1006.7 -0.6 68
2017-09-08 09:00:00 16.1 9 Sudoeste -- -- -- 1007 -0.3 72
2017-09-08 08:00:00 -- -- -- -- -- -- -- -- --
2017-09-08 07:00:00 15.2 10 Sudoeste 13 Oeste 0 1007.3 -0.9 75
2017-09-08 06:00:00 15.1 9 Oeste 13 Oeste 0 1007.3 -1.4 77
2017-09-08 05:00:00 15.5 9 Sudoeste 10 Oeste 0 1007.5 -2 75
2017-09-08 04:00:00 16.1 8 Oeste 13 Oeste 0 1008.2 -2.1 70
2017-09-08 03:00:00 16.2 7 Sudeste 14 Este 0 1008.7 -1.9 67
2017-09-08 02:00:00 16.6 12 Sudeste 18 Este 0 1009.5 -1.5 68
2017-09-08 01:00:00 17.3 8 Nordeste 19 Nordeste 0 1010.3 -0.7 62
2017-09-08 00:00:00 17.4 12 Nordeste 20 Nordeste 0 1010.6 -0.2 65
2017-09-07 23:00:00 17.3 12 Nordeste 20 Nordeste 0 1011 0.2 66
2017-09-07 22:00:00 17.3 10 Nordeste 19 Nordeste 0 1011 0.1 65
2017-09-07 21:00:00 17.3 10 Nordeste 19 Nordeste 0 1010.8 -0.3 64
2017-09-07 20:00:00 18.1 9 Nordeste 19 Norte 0 1010.8 -0.8 63
2017-09-07 19:00:00 18.8 9 Nordeste 17 Este 0 1010.9 -1 60
2017-09-07 18:00:00 20 8 Nordeste 16 Nordeste 0 1011.1 -1.2 58
2017-09-07 17:00:00 20.2 9 Este 17 Este 0 1011.6 -1 56
2017-09-07 16:00:00 20.2 11 Nordeste 21 Nordeste 0 1011.9 -1.2 55
2017-09-07 15:00:00 20 9 Nordeste 19 Nordeste 0 1012.3 -1.2 56
2017-09-07 14:00:00 19.8 9 Nordeste 21 Nordeste 0 1012.6 -1 57
2017-09-07 13:00:00 19.8 13 Este 19 Nordeste 0 1013.1 -0.4 57
2017-09-07 12:00:00 18.6 14 Nordeste 21 Nordeste 0 1013.5 0.1 62
2017-09-07 11:00:00 18.4 15 Nordeste 25 Nordeste 0 1013.6 0.5 62
2017-09-07 10:00:00 17.8 12 Nordeste 26 Nordeste 0 1013.5 0.6 64
2017-09-07 09:00:00 17.5 15 Nordeste 28 Nordeste 0 1013.4 0.5 66
2017-09-07 08:00:00 17.5 15 Nordeste 26 Nordeste 0 1013.1 -0.1 70
2017-09-07 07:00:00 17.5 13 Nordeste 23 Este 0 1012.9 -0.8 69
2017-09-07 06:00:00 17.5 17 Este 26 Este 0 1012.9 -1.2 70
2017-09-07 05:00:00 17.8 18 Este 25 Este 0 1013.2 -1.3 71
2017-09-07 04:00:00 17.6 21 Este 29 Este 0 1013.7 -1.3 71
2017-09-07 03:00:00 17.5 24 Este 32 Este 0 1014.1 -1.1 72
2017-09-07 02:00:00 17.7 25 Este 36 Este 0 1014.5 -0.9 70
2017-09-07 01:00:00 17.7 29 Este 36 Este 0 1015 -0.4 70
2017-09-07 00:00:00 17.9 31 Este 38 Este 0 1015.2 0 69
2017-09-06 23:00:00 18 30 Este 42 Este 0 1015.4 0.2 69
2017-09-06 22:00:00 17.9 31 Este 41 Nordeste 0 1015.4 0 75
2017-09-06 21:00:00 18.2 31 Nordeste 43 Nordeste 0 1015.2 -0.3 74
2017-09-06 20:00:00 18.5 30 Nordeste 40 Nordeste 0 1015.2 -0.7 74
2017-09-06 19:00:00 19.3 24 Este 34 Este 0 1015.4 -1.3 68
2017-09-06 18:00:00 20.2 24 Este 32 Este 0 1015.5 -1.4 67
2017-09-06 17:00:00 20.9 22 Este 29 Este 0 1015.9 -1.3 65
2017-09-06 16:00:00 21.5 20 Este 28 Este 0 1016.7 -0.8 62
2017-09-06 15:00:00 20.6 22 Nordeste 30 Nordeste 0 1016.9 -0.6 68
2017-09-06 14:00:00 21.6 21 Este 31 Nordeste 0 1017.2 -0.3 61
2017-09-06 13:00:00 20 21 Nordeste 37 Nordeste 0 1017.5 0.1 71
2017-09-06 12:00:00 18.9 17 Nordeste 30 Nordeste 0 1017.5 0.3 71
2017-09-06 11:00:00 20.1 14 Este 23 Nordeste 0 1017.5 0.8 66
2017-09-06 10:00:00 19 12 Nordeste 22 Nordeste 0 1017.4 0.8 68
2017-09-06 09:00:00 17.9 13 Este 22 Nordeste 0 1017.2 0.8 72
2017-09-06 08:00:00 17.3 16 Nordeste 22 Nordeste 0 1016.7 0.2 75
2017-09-06 07:00:00 17.5 17 Nordeste 23 Este 0 1016.6 -0.4 71
2017-09-06 06:00:00 17.4 16 Nordeste 23 Nordeste 0 1016.4 -0.8 74
2017-09-06 05:00:00 17.6 16 Nordeste 22 Nordeste 0 1016.5 -0.7 75
2017-09-06 04:00:00 17.8 16 Nordeste 24 Nordeste 0 1017 0 68
2017-09-06 03:00:00 17.9 16 Nordeste 25 Nordeste 0 1017.2 0 70
2017-09-06 02:00:00 17.9 12 Norte 21 Nordeste 0 1017.2 0.2 72
2017-09-06 01:00:00 17.9 9 Nordeste 21 Nordeste 0 1017 0.5 75
2017-09-06 00:00:00 17.9 12 Norte 22 Norte 0 1017.2 1.5 70
2017-09-05 23:00:00 18.1 14 Nordeste 24 Nordeste 0 1017 1.8 72
2017-09-05 22:00:00 18.2 14 Nordeste 26 Nordeste 0 1016.5 1.7 75
2017-09-05 21:00:00 18.5 13 Norte 27 Norte 0 1015.7 1.3 78
2017-09-05 20:00:00 18.5 13 Norte 23 Norte 0 1015.2 1.4 82
2017-09-05 19:00:00 18.4 12 Norte 24 Norte 0 1014.8 1.8 84
2017-09-05 18:00:00 18.3 11 Noroeste 31 Oeste 0.2 1014.4 1.5 89
2017-09-05 17:00:00 19.1 27 Oeste 46 Noroeste 0.6 1013.8 0.9 89
2017-09-05 16:00:00 19.2 38 Oeste 44 Noroeste 0.2 1013 0.2 84
2017-09-05 15:00:00 21.5 36 Oeste 42 Noroeste 0 1012.9 0.4 72
2017-09-05 14:00:00 22.9 13 Oeste 26 Oeste 0 1012.9 0.9 68
2017-09-05 13:00:00 23.7 20 Oeste 24 Oeste 0 1012.8 1.4 64
2017-09-05 12:00:00 22.8 22 Oeste 26 Oeste 0 1012.5 1.8 68
2017-09-05 11:00:00 21.4 18 Oeste 25 Oeste 0 1012 2 76
2017-09-05 10:00:00 18.8 20 Oeste 28 Oeste 0 1011.4 1.8 84
2017-09-05 09:00:00 18.2 19 Oeste 34 Oeste 0 1010.7 1.1 85
2017-09-05 08:00:00 18.1 33 Oeste 38 Oeste 0 1010 0.1 85
2017-09-05 07:00:00 18.2 28 Oeste 34 Oeste 0 1009.6 -0.4 85
2017-09-05 06:00:00 18.4 16 Oeste 21 Oeste 0 1009.6 -0.6 84
2017-09-05 05:00:00 18.4 14 Oeste 20 Oeste 0 1009.9 -0.3 83
2017-09-05 04:00:00 18.6 15 Oeste 18 Sudoeste 0 1010 -0.1 82
2017-09-05 03:00:00 18.7 14 Oeste 18 Sudoeste 0 1010.2 0.3 83
2017-09-05 02:00:00 18.6 12 Sudoeste 18 Oeste 0 1010.2 0.5 84
2017-09-05 01:00:00 18.5 17 Oeste 18 Oeste 0 1010.1 1.1 85
2017-09-05 00:00:00 18.6 11 Sudoeste 17 Oeste 0 1009.9 1.7 85
2017-09-04 23:00:00 18.6 13 Oeste 27 Oeste 0 1009.7 2.1 87
2017-09-04 22:00:00 18.4 16 Oeste 31 Oeste 0 1009 1.6 86
2017-09-04 21:00:00 18.9 28 Oeste 40 Oeste 0 1008.2 0.7 85
2017-09-04 20:00:00 19.7 38 Oeste 47 Oeste 0 1007.6 0 83
2017-09-04 19:00:00 20.5 36 Oeste 39 Oeste 0 1007.4 -0.4 80
2017-09-04 18:00:00 21 35 Oeste 41 Oeste 0 1007.5 -0.2 77
2017-09-04 17:00:00 21.3 34 Oeste 40 Oeste 0 1007.6 -0.1 76
2017-09-04 16:00:00 20.5 31 Oeste 39 Oeste 0 1007.8 0.4 79
2017-09-04 15:00:00 21.1 36 Oeste 41 Oeste 0 1007.7 0.5 79
2017-09-04 14:00:00 20.3 28 Oeste 43 Oeste 0 1007.7 1.2 81
2017-09-04 13:00:00 19.7 37 Oeste 40 Oeste 0 1007.4 1.8 84
2017-09-04 12:00:00 20.8 14 Oeste 19 Oeste 0 1007.2 2 84
2017-09-04 11:00:00 19.7 17 Oeste 26 Oeste 0 1006.5 2 88
2017-09-04 10:00:00 18.3 21 Oeste 32 Oeste 0 1005.6 1.6 90
2017-09-04 09:00:00 17.6 25 Oeste 29 Oeste 0.2 1005.2 1.6 92
2017-09-04 08:00:00 17.4 24 Oeste 28 Oeste 0 1004.5 0.8 91
2017-09-04 07:00:00 17.5 24 Oeste 37 Oeste 0.2 1004 0.5 92
2017-09-04 06:00:00 17.5 30 Oeste 35 Oeste 0.4 1003.6 0.1 92
2017-09-04 05:00:00 17.6 27 Oeste 36 Oeste 0 1003.7 0.3 92
2017-09-04 04:00:00 17.6 32 Oeste 39 Oeste 0.2 1003.5 0.3 92
2017-09-04 03:00:00 17.6 31 Oeste 40 Oeste 0.4 1003.5 0.5 91
2017-09-04 02:00:00 17.7 34 Oeste 58 Oeste 0.4 1003.4 0.7 89
2017-09-04 01:00:00 18.8 41 Oeste 59 Oeste 0 1003.2 0.7 84
2017-09-04 00:00:00 18.7 40 Oeste 51 Oeste 0 1003 1 84
2017-09-03 23:00:00 18.5 45 Oeste 51 Oeste 0 1002.7 1.1 89
2017-09-03 22:00:00 18.3 37 Oeste 46 Oeste 0 1002.5 0.8 89
2017-09-03 21:00:00 18.4 40 Oeste 53 Oeste 0 1002 0.5 88
2017-09-03 20:00:00 19 44 Oeste 51 Oeste 0 1001.6 -0.2 86
2017-09-03 19:00:00 19.5 42 Oeste 56 Oeste 0 1001.7 -0.9 82
2017-09-03 18:00:00 20.5 50 Oeste 60 Oeste 0 1001.5 -1.9 76
2017-09-03 17:00:00 21.2 50 Oeste 58 Oeste 0 1001.8 -1.6 73
2017-09-03 16:00:00 22 31 Oeste 46 Oeste 0 1002.6 -1.5 75
2017-09-03 15:00:00 19.6 39 Oeste 54 Oeste 0 1003.4 -1.5 81
2017-09-03 14:00:00 20.2 48 Oeste 60 Oeste 0 1003.4 -1.5 77
2017-09-03 13:00:00 18.8 46 Oeste 53 Oeste 0 1004.1 -0.7 78
2017-09-03 12:00:00 20 40 Oeste 51 Oeste 0 1004.9 0 62
2017-09-03 11:00:00 20.5 30 Oeste 33 Oeste 0 1004.9 -0.7 54
2017-09-03 10:00:00 20.3 31 Oeste 39 Oeste 0 1004.8 -0.8 39
2017-09-03 09:00:00 18.5 36 Oeste 42 Oeste 0 1004.9 -1.1 42
2017-09-03 08:00:00 16.4 16 Oeste 32 Oeste 0 1005.6 -1.1 72
2017-09-03 07:00:00 16.4 21 Oeste 34 Oeste 0 1005.6 -1.7 73
2017-09-03 06:00:00 17.1 31 Oeste 36 Oeste 0 1006 -1.9 62
2017-09-03 05:00:00 16.1 20 Oeste 24 Oeste 0 1006.7 -1.9 75
2017-09-03 04:00:00 16.9 14 Oeste 19 Oeste 0 1007.3 -1.9 71
2017-09-03 03:00:00 17.3 8 Oeste 11 Oeste 0 1007.9 -2 74
2017-09-03 02:00:00 17.5 6 Sudoeste 8 Sudoeste 0 1008.6 -1.3 75
2017-09-03 01:00:00 17.5 6 Sudoeste 12 Sudoeste 0 1009.2 -0.8 78
2017-09-03 00:00:00 17.5 3 Sudoeste 14 Sudeste 0 1009.9 0.1 77
2017-09-02 23:00:00 17.4 13 Sudeste 22 Sudeste 0 1009.9 0 74
2017-09-02 22:00:00 17.7 19 Sudeste 30 Sudeste 0 1010 -0.4 74
2017-09-02 21:00:00 17.8 26 Sudeste 33 Sudeste 0 1009.8 -0.9 75
2017-09-02 20:00:00 18 23 Sudeste 32 Sudeste 0 1009.9 -1.1 75
2017-09-02 19:00:00 18.5 26 Sudeste 31 Sudeste 0 1010.4 -1 74
2017-09-02 18:00:00 19.4 21 Este 36 Este 0 1010.7 -1.5 70
2017-09-02 17:00:00 19.5 22 Este 36 Este 0 1011 -1.7 69
2017-09-02 16:00:00 20.3 23 Este 35 Este 0 1011.4 -1.8 64
2017-09-02 15:00:00 20.1 25 Este 36 Este 0 1012.2 -1.5 64
2017-09-02 14:00:00 19.6 29 Este 36 Este 0 1012.7 -1.3 65
2017-09-02 13:00:00 19.1 28 Este 36 Este 0 1013.2 -0.7 66
2017-09-02 12:00:00 18.8 25 Sudeste 32 Sudeste 0 1013.7 0.1 67
2017-09-02 11:00:00 18.2 22 Este 27 Este 0 1014 0.4 69
2017-09-02 10:00:00 17.4 20 Este 28 Sudeste 0 1013.9 0.2 71
2017-09-02 09:00:00 16.5 21 Sudeste 29 Sudeste 0 1013.6 -0.2 72
2017-09-02 08:00:00 15.9 21 Sudeste 32 Sudeste 0 1013.6 -0.9 72
2017-09-02 07:00:00 16.3 19 Sudeste 41 Este 0 1013.7 -1.4 75
2017-09-02 06:00:00 17.3 32 Este 45 Este 0 1013.8 -1.3 68
2017-09-02 05:00:00 17.1 22 Este 31 Este 0 1014.5 -1.1 71
2017-09-02 04:00:00 17.1 24 Este 36 Este 0 1015.1 -0.6 66
2017-09-02 03:00:00 17.3 28 Este 36 Este 0 1015.1 -0.9 67
2017-09-02 02:00:00 17.2 26 Este 36 Este 0 1015.6 -0.2 71
2017-09-02 01:00:00 17.2 29 Este 34 Este 0 1015.7 0.3 69
2017-09-02 00:00:00 17.4 18 Nordeste 34 Nordeste 0 1016 1.1 69
2017-09-01 23:00:00 17.8 20 Nordeste 33 Nordeste 0 1015.8 1 69
2017-09-01 22:00:00 17.9 18 Nordeste 30 Nordeste 0 1015.4 0.6 69
2017-09-01 21:00:00 18.1 19 Nordeste 30 Nordeste 0 1014.9 0.3 67
2017-09-01 20:00:00 18.5 19 Nordeste 26 Nordeste 0 1014.8 0.2 67
2017-09-01 19:00:00 19.8 11 Nordeste 22 Nordeste 0 1014.8 0.2 61
2017-09-01 18:00:00 19.8 12 Nordeste 22 Nordeste 0 1014.6 -0.1 61
2017-09-01 17:00:00 20.8 12 Nordeste 22 Norte 0 1014.6 0 59
2017-09-01 16:00:00 21 12 Norte 22 Norte 0 1014.6 0 56
2017-09-01 15:00:00 20.9 10 Norte 23 Norte 0 1014.7 0.2 57
2017-09-01 14:00:00 20.3 12 Norte 26 Norte 0 1014.6 0.3 61
2017-09-01 13:00:00 19.7 10 Norte 18 Norte 0 1014.6 0.8 65
2017-09-01 12:00:00 19.1 9 Sudoeste 13 Oeste 0 1014.5 0.9 71
2017-09-01 11:00:00 19.4 6 Oeste 11 Oeste 0 1014.3 1 67
2017-09-01 10:00:00 17.6 9 Oeste 12 Oeste 0 1013.8 0.9 72
2017-09-01 09:00:00 16.9 6 Oeste 10 Oeste 0 1013.6 0.6 72
2017-09-01 08:00:00 15.4 7 Oeste 9 Oeste 0 1013.3 0.1 75
2017-09-01 07:00:00 15.5 6 Oeste 10 Oeste 0 1012.9 -0.4 76
2017-09-01 06:00:00 15.5 8 Oeste 9 Oeste 0 1013 -0.4 76
2017-09-01 05:00:00 15.4 5 Sudoeste 8 Sudoeste 0 1013.2 -0.2 77
2017-09-01 04:00:00 15.8 5 Oeste 10 Este 0 1013.3 -0.2 76
2017-09-01 03:00:00 16.7 10 Este 25 Nordeste 0 1013.4 -0.3 71
2017-09-01 02:00:00 17 11 Nordeste 18 Este 0 1013.4 -0.2 70
2017-09-01 01:00:00 17.3 10 Nordeste 24 Nordeste 0 1013.5 0.1 70
2017-09-01 00:00:00 17.5 13 Norte 24 Nordeste 0 1013.7 0.7 69
2017-08-31 23:00:00 17.4 14 Nordeste 24 Nordeste 0 1013.6 0.9 66
2017-08-31 22:00:00 17.4 14 Nordeste 23 Nordeste 0 1013.4 1 64
2017-08-31 21:00:00 17.5 11 Nordeste 21 Norte 0 1013 0.6 66
2017-08-31 20:00:00 18.7 8 Nordeste 20 Nordeste 0 1012.7 0.3 63
2017-08-31 19:00:00 19.5 11 Norte 21 Nordeste 0 1012.4 -0.1 57
2017-08-31 18:00:00 20.2 10 Norte 19 Nordeste 0 1012.4 -0.2 60
2017-08-31 17:00:00 20.5 9 Nordeste 19 Este 0 1012.4 -0.5 59
2017-08-31 16:00:00 20.1 12 Nordeste 19 Nordeste 0 1012.5 -0.5 59
2017-08-31 15:00:00 20.1 17 Nordeste 22 Nordeste 0 1012.6 -0.3 60
2017-08-31 14:00:00 20.2 18 Nordeste 24 Nordeste 0 1012.9 0.4 63
2017-08-31 13:00:00 18.6 15 Nordeste 24 Nordeste 0 1013 0.9 67
2017-08-31 12:00:00 19.1 7 Este 19 Este 0 1012.9 1.2 69
2017-08-31 11:00:00 18.5 11 Este 15 Sudeste 0 1012.5 1.1 71
2017-08-31 10:00:00 16.9 13 Este 28 Nordeste 0 1012.1 1 78
2017-08-31 09:00:00 16 22 Este 31 Este 0.8 1011.7 0.9 80
2017-08-31 08:00:00 16 20 Este 30 Este 0.4 1011.4 0.7 78
2017-08-31 07:00:00 17.1 16 Nordeste 28 Norte 0 1011.1 0.6 71
2017-08-31 06:00:00 16.9 14 Norte 29 Norte 0 1010.8 0.4 75
2017-08-31 05:00:00 16.7 19 Nordeste 30 Nordeste 0 1010.7 0 73
2017-08-31 04:00:00 16.8 20 Nordeste 34 Nordeste 0 1010.5 0 79
2017-08-31 03:00:00 16.9 16 Nordeste 26 Nordeste 0 1010.4 0.2 76
2017-08-31 02:00:00 16.9 15 Nordeste 29 Nordeste 0 1010.7 0.7 77
2017-08-31 01:00:00 17.2 18 Nordeste 30 Este 0 1010.5 0.6 78
2017-08-31 00:00:00 17.2 23 Nordeste 32 Nordeste 0 1010.2 1.2 79
2017-08-30 23:00:00 17.1 18 Nordeste 27 Nordeste 0 1010 1.4 77
2017-08-30 22:00:00 16.8 14 Nordeste 33 Nordeste 0 1009.9 1.5 80
2017-08-30 21:00:00 16.7 17 Nordeste 31 Nordeste 0 1009 1 81
2017-08-30 20:00:00 16.5 16 Nordeste 30 Nordeste 0.2 1008.6 1.1 85
2017-08-30 19:00:00 15.7 13 Norte 24 Nordeste 0.8 1008.4 1.1 90
2017-08-30 18:00:00 16.5 9 Norte 26 Norte 0 1008 0.9 87
2017-08-30 17:00:00 17.8 5 Noroeste 13 Norte 0 1007.5 0.7 83
2017-08-30 16:00:00 18.1 5 Noroeste 10 Oeste 0 1007.3 0.8 84
2017-08-30 15:00:00 17.3 4 Sudoeste 10 Oeste 0.2 1007.1 0.7 86
2017-08-30 14:00:00 18.1 6 Sudoeste 7 Oeste 0.2 1006.8 0.8 87
2017-08-30 13:00:00 17.5 4 Este 13 Sur 0 1006.5 0.7 88
2017-08-30 12:00:00 16.6 5 Norte 15 Nordeste 0 1006.4 1.4 89
2017-08-30 11:00:00 16.7 5 Nordeste 19 Norte 0.4 1006 1.5 92
2017-08-30 10:00:00 16.7 10 Norte 22 Norte 1 1005.8 1.5 92
2017-08-30 09:00:00 16.6 14 Norte 26 Norte 0.4 1005 0.8 93
2017-08-30 08:00:00 17 13 Norte 28 Norte 0.6 1004.5 0.3 94
2017-08-30 07:00:00 17.1 17 Norte 36 Norte 1.4 1004.3 0 94
2017-08-30 06:00:00 17.9 12 Norte 30 Norte 0.4 1004.2 -0.3 91
2017-08-30 05:00:00 18 4 Noroeste 18 Norte 0 1004.2 -0.9 90
2017-08-30 04:00:00 18.1 6 Noroeste 18 Nordeste 0 1004.3 -1.3 90
2017-08-30 03:00:00 18.2 8 Norte 21 Nordeste 0 1004.5 -1 90
2017-08-30 02:00:00 18.2 11 Nordeste 24 Nordeste 0 1005.1 -0.5 90
2017-08-30 01:00:00 18.3 15 Nordeste 27 Nordeste 0 1005.6 0.3 90
2017-08-30 00:00:00 18.4 12 Norte 32 Nordeste 0 1005.5 0.7 90
2017-08-29 23:00:00 19 17 Nordeste 28 Nordeste 0 1005.6 0.8 88
2017-08-29 22:00:00 19 16 Nordeste 28 Este 0 1005.3 0.7 89
2017-08-29 21:00:00 18.8 14 Nordeste 29 Norte 0 1004.8 0.5 89
2017-08-29 20:00:00 18.8 21 Nordeste 37 Norte 0 1004.8 0.9 90
2017-08-29 19:00:00 19.3 13 Norte 32 Nordeste 0 1004.6 0.5 88
2017-08-29 18:00:00 19.6 14 Norte 28 Nordeste 0 1004.3 -0.4 87
2017-08-29 17:00:00 20.1 13 Nordeste 26 Nordeste 0 1003.9 -0.7 88
2017-08-29 16:00:00 20 18 Nordeste 23 Nordeste 0 1004.1 -0.4 90
2017-08-29 15:00:00 20.8 8 Nordeste 15 Nordeste 0 1004.7 0.3 88
2017-08-29 14:00:00 20.4 13 Nordeste 18 Nordeste 0 1004.6 0.3 89
2017-08-29 13:00:00 20.1 11 Nordeste 16 Nordeste 0.2 1004.5 0.6 90
2017-08-29 12:00:00 19.9 11 Este 16 Nordeste 0 1004.4 0.5 90
2017-08-29 11:00:00 19.8 8 Nordeste 13 Nordeste 0.2 1004.3 1.2 90
2017-08-29 10:00:00 19.7 8 Nordeste 13 Norte 0.4 1003.9 1.2 90
2017-08-29 09:00:00 19.1 4 Noroeste 19 Oeste 0 1003.9 0.5 90
2017-08-29 08:00:00 18.9 15 Oeste 23 Oeste 0 1003.1 -0.5 90
2017-08-29 07:00:00 18.5 17 Oeste 25 Oeste 0 1002.7 -0.9 90
2017-08-29 06:00:00 18.7 15 Oeste 23 Oeste 0 1003.4 0.4 90
2017-08-29 05:00:00 18.7 14 Oeste 20 Noroeste 0 1003.6 0.2 89
2017-08-29 04:00:00 19.1 18 Oeste 30 Oeste 0 1003.6 -0.5 89
2017-08-29 03:00:00 18.7 23 Oeste 28 Oeste 0 1003 -1.6 88
2017-08-29 02:00:00 18.9 23 Oeste 26 Oeste 0 1003.4 -0.5 88
2017-08-29 01:00:00 19.1 17 Oeste 19 Oeste 0 1004.1 0 87
2017-08-29 00:00:00 19.5 6 Oeste 11 Sudoeste 0 1004.6 1 85
2017-08-28 23:00:00 19.1 9 Oeste 11 Oeste 0 1003.9 0.1 85
2017-08-28 22:00:00 19.4 4 Oeste 8 Sudoeste 0 1004.1 0.8 85
2017-08-28 21:00:00 19.9 4 Oeste 9 Oeste 0 1003.6 0.2 83
2017-08-28 20:00:00 20.4 4 Oeste 14 Sudoeste 0 1003.8 0.7 80
2017-08-28 19:00:00 20.7 8 Oeste 11 Oeste 0 1003.3 0.1 80
2017-08-28 18:00:00 21.9 5 Oeste 12 Oeste 0 1003.4 -0.2 75
2017-08-28 17:00:00 22.7 8 Oeste 12 Oeste 0 1003.1 -0.5 72
2017-08-28 16:00:00 22.3 10 Oeste 13 Oeste 0 1003.2 -0.5 74
2017-08-28 15:00:00 21.2 9 Noroeste 12 Noroeste 0 1003.6 -0.5 75
2017-08-28 14:00:00 21.2 8 Oeste 17 Oeste 0 1003.6 -0.4 76
2017-08-28 13:00:00 20.7 12 Oeste 17 Oeste 0 1003.7 0.1 78
2017-08-28 12:00:00 20.7 3 Oeste 10 Sudoeste 0 1004.1 0.8 80
2017-08-28 11:00:00 18.5 10 Oeste 18 Oeste 0 1004 1.2 82
2017-08-28 10:00:00 17.5 11 Oeste 14 Oeste 0 1003.6 0.5 84
2017-08-28 09:00:00 17.5 7 Sudoeste 12 Sur 0 1003.3 0.7 85
2017-08-28 08:00:00 17.4 7 Noroeste 13 Oeste 0 1002.8 0.2 83
2017-08-28 07:00:00 17.6 8 Oeste 13 Oeste 0 1003.1 0.1 81
2017-08-28 06:00:00 18.2 6 Sudoeste 9 Sudoeste 0 1002.6 0 81
2017-08-28 05:00:00 17.7 5 Sudoeste 10 Sudeste 0 1002.6 0 85
2017-08-28 04:00:00 17.1 3 Sudoeste 18 Oeste 0 1003 0.2 89
2017-08-28 03:00:00 17.2 16 Oeste 28 Oeste 0 1002.6 0.1 90
2017-08-28 02:00:00 16.7 22 Oeste 24 Oeste 0 1002.6 -0.2 90
2017-08-28 01:00:00 17.7 11 Sudoeste 16 Sudoeste 0 1002.8 0.4 89
2017-08-28 00:00:00 17.3 8 Sudeste 30 Sudeste 0 1002.5 0 88
2017-08-27 23:00:00 17.4 16 Sudeste 41 Sudeste 0 1002.8 0.7 88
2017-08-27 22:00:00 18 15 Sudeste 24 Este 0 1002.4 0.8 91
2017-08-27 21:00:00 17.2 19 Oeste 40 Sudoeste 0.2 1002.5 0.7 90
2017-08-27 20:00:00 17.2 28 Sudoeste 66 Sur 10 1002.1 0.8 88
2017-08-27 19:00:00 20.2 8 Nordeste 13 Norte 0.2 1001.6 0.5 89
2017-08-27 18:00:00 20.3 5 Norte 19 Nordeste 0 1001.8 0.5 89
2017-08-27 17:00:00 20.5 14 Este 26 Este 0 1001.3 0 87
2017-08-27 16:00:00 20.9 17 Este 23 Este 0 1001.1 -0.5 83
2017-08-27 15:00:00 22.4 22 Este 31 Este 0 1001.3 -0.8 78
2017-08-27 14:00:00 22.5 19 Este 43 Este 0 1001.3 -0.9 78
2017-08-27 13:00:00 20.8 30 Sudeste 37 Sudeste 0 1001.6 -0.1 83
2017-08-27 12:00:00 19.5 25 Este 30 Sudeste 0 1002.1 0.2 85
2017-08-27 11:00:00 19.9 21 Este 30 Este 0 1002.2 0.8 85
2017-08-27 10:00:00 19.8 13 Este 26 Este 0 1001.7 0.4 87
2017-08-27 09:00:00 19.1 17 Sudeste 28 Sudeste 0 1001.9 0.9 89
2017-08-27 08:00:00 19.3 22 Sudeste 29 Sudeste 0 1001.4 0.8 89
2017-08-27 07:00:00 19.2 16 Este 26 Este 0 1001.3 0.1 90
2017-08-27 06:00:00 19 18 Este 31 Este 0 1001 -0.6 90
2017-08-27 05:00:00 19.1 20 Este 42 Este 0 1000.6 -1.4 90
2017-08-27 04:00:00 19.3 32 Este 44 Este 0 1001.2 -1.3 89
2017-08-27 03:00:00 18.9 35 Este 48 Este 0 1001.6 -1 89
2017-08-27 02:00:00 19.3 27 Este 41 Este 0 1002 -0.2 89
2017-08-27 01:00:00 19.5 26 Este 39 Este 0 1002.5 0.5 88
2017-08-27 00:00:00 19.8 28 Sudeste 40 Sudeste 0 1002.6 0.9 88
2017-08-26 23:00:00 19.6 33 Sudeste 41 Sudeste 0 1002.2 0.4 88
2017-08-26 22:00:00 19.7 34 Sudeste 41 Sudeste 0 1002 0.2 88
2017-08-26 21:00:00 19.7 33 Sudeste 44 Sudeste 0 1001.7 -0.3 86
2017-08-26 20:00:00 19.5 33 Sudeste 42 Sudeste 0 1001.8 -0.6 82
2017-08-26 19:00:00 19.9 35 Sudeste 42 Sudeste 0 1001.8 -0.5 83
2017-08-26 18:00:00 20 30 Este 40 Sudeste 0 1002 -0.9 81
2017-08-26 17:00:00 20.8 33 Sudeste 40 Este 0 1002.4 -1.2 78
2017-08-26 16:00:00 20.8 33 Este 39 Este 0 1002.3 -1.4 79
2017-08-26 15:00:00 20.7 18 Este 26 Este 0 1002.9 -0.6 81
2017-08-26 14:00:00 20.3 12 Este 21 Este 0 1003.6 -0.3 83
2017-08-26 13:00:00 20.8 10 Este 21 Este 0 1003.7 0.4 76
2017-08-26 12:00:00 20.8 8 Este 12 Oeste 0 1003.5 0.3 73
2017-08-26 11:00:00 19.3 10 Oeste 14 Oeste 0 1003.9 1.1 81
2017-08-26 10:00:00 19.1 8 Sudeste 11 Sudeste 0 1003.3 0.7 82
2017-08-26 09:00:00 18.4 2 Sur 7 Oeste 0 1003.2 1.1 85
2017-08-26 08:00:00 17.5 6 Oeste 15 Sudoeste 0 1002.8 0.8 85
2017-08-26 07:00:00 18 8 Sudoeste 16 Sudeste 0 1002.6 -0.1 85
2017-08-26 06:00:00 18 5 Sur 23 Sudeste 0 1002.1 -1.4 84
2017-08-26 05:00:00 18.2 18 Sudeste 26 Sudeste 0 1002 -2.1 84
2017-08-26 04:00:00 18.3 17 Sudeste 25 Sudeste 0 1002.7 -2 84
2017-08-26 03:00:00 18.4 17 Sudeste 24 Sudeste 0 1003.5 -1.5 83
2017-08-26 02:00:00 18.4 2 Sudeste 14 Sur 0 1004.1 -1 80
2017-08-26 01:00:00 18.6 13 Sudeste 25 Sudeste 0 1004.7 -0.5 80
2017-08-26 00:00:00 18.8 18 Sudeste 25 Sudeste 0 1005 0 80
2017-08-25 23:00:00 18.7 17 Sudeste 23 Sudeste 0 1005.1 0.3 82
2017-08-25 22:00:00 18.8 12 Sudeste 17 Sudeste 0 1005.2 0.5 79
2017-08-25 21:00:00 19.3 8 Sudeste 15 Este 0 1005 0.2 74
2017-08-25 20:00:00 20.4 10 Sudeste 13 Sudeste 0 1004.8 0 68
2017-08-25 19:00:00 22 5 Nordeste 12 Nordeste 0 1004.7 -0.3 55
2017-08-25 18:00:00 23 8 Oeste 13 Noroeste 0 1004.8 -0.3 58
2017-08-25 17:00:00 23.1 8 Oeste 13 Oeste 0 1004.8 -0.5 61
2017-08-25 16:00:00 22.4 11 Oeste 16 Oeste 0 1005 -0.6 66
2017-08-25 15:00:00 22.1 9 Oeste 14 Oeste 0 1005.1 -0.6 70
2017-08-25 14:00:00 21.2 8 Oeste 17 Noroeste 0 1005.3 -0.5 75
2017-08-25 13:00:00 20.7 12 Oeste 15 Oeste 0 1005.6 0 71
2017-08-25 12:00:00 20.2 16 Oeste 19 Oeste 0 1005.7 0.4 75
2017-08-25 11:00:00 19.6 6 Sudoeste 16 Oeste 0 1005.8 0.8 79
2017-08-25 10:00:00 18.5 8 Oeste 12 Oeste 0 1005.6 0.6 84
2017-08-25 09:00:00 18 6 Oeste 8 Oeste 0 1005.3 0.1 84
2017-08-25 08:00:00 17.8 3 Noroeste 5 Noroeste 0 1005 -0.6 84
2017-08-25 07:00:00 18.1 3 Sudeste 15 Sur 0 1005 -0.9 83
2017-08-25 06:00:00 18.3 9 Sur 12 Sur 0 1005.2 -0.7 85
2017-08-25 05:00:00 18.1 4 Oeste 9 Oeste 0 1005.6 -0.5 84
2017-08-25 04:00:00 17.9 9 Oeste 18 Sudeste 0 1005.9 -0.8 84
2017-08-25 03:00:00 18.7 14 Sudeste 33 Sudeste 0 1005.9 -0.9 84
2017-08-25 02:00:00 18.7 21 Sudeste 30 Sudeste 0 1006.1 -0.8 85
2017-08-25 01:00:00 18.4 19 Sudeste 26 Sudeste 0 1006.7 0.1 86
2017-08-25 00:00:00 18.5 17 Sudeste 28 Sudeste 0 1006.8 0.4 86
2017-08-24 23:00:00 18.5 24 Sudeste 29 Sudeste 0 1006.9 0.6 85
2017-08-24 22:00:00 18.5 24 Sudeste 29 Sudeste 0 1006.6 0 85
2017-08-24 21:00:00 18.7 24 Este 30 Sudeste 0 1006.4 -0.4 83
2017-08-24 20:00:00 19.2 23 Este 28 Sudeste 0 1006.3 -0.4 81
2017-08-24 19:00:00 20.1 23 Este 28 Este 0 1006.6 -0.6 76
2017-08-24 18:00:00 20.4 21 Sudeste 28 Este 0 1006.8 -0.4 72
2017-08-24 17:00:00 20.7 22 Sudeste 29 Este 0 1006.7 -0.5 75
2017-08-24 16:00:00 20.3 22 Sudeste 31 Este 0 1007.2 0.1 73
2017-08-24 15:00:00 20.2 20 Sudeste 29 Sudeste 0 1007.2 0.1 78
2017-08-24 14:00:00 19.6 18 Sudeste 28 Sudeste 0 1007.2 0.4 84
2017-08-24 13:00:00 18.6 19 Sudeste 27 Este 0 1007.1 0.6 90
2017-08-24 12:00:00 18.4 18 Este 33 Este 0.4 1007.1 0.7 91
2017-08-24 11:00:00 18.3 19 Este 27 Este 0.6 1006.8 0.6 91
2017-08-24 10:00:00 18.2 18 Sudeste 29 Sudeste 0.2 1006.5 0.6 91
2017-08-24 09:00:00 18.4 17 Este 28 Este 0.2 1006.4 0.3 90
2017-08-24 08:00:00 18.5 17 Este 21 Este 0 1006.2 -0.2 90
2017-08-24 07:00:00 18.4 18 Este 22 Este 0 1005.9 -0.6 90
2017-08-24 06:00:00 18.2 13 Sudeste 21 Sudeste 0 1006.1 -0.7 91
2017-08-24 05:00:00 18.2 11 Sudeste 35 Nordeste 0.4 1006.4 -0.8 91
2017-08-24 04:00:00 18.5 20 Nordeste 38 Nordeste 0.2 1006.5 -0.9 90
2017-08-24 03:00:00 18.7 22 Nordeste 28 Nordeste 0 1006.8 -1 89
2017-08-24 02:00:00 18.8 17 Nordeste 29 Nordeste 0.2 1007.2 -0.5 89
2017-08-24 01:00:00 18.2 26 Este 32 Este 0 1007.4 0 89
2017-08-24 00:00:00 18.2 25 Este 33 Este 0 1007.8 0.4 89
2017-08-23 23:00:00 18.8 16 Este 36 Nordeste 0.2 1007.7 0.6 88
2017-08-23 22:00:00 18.8 26 Nordeste 31 Nordeste 0 1007.4 0 88
2017-08-23 21:00:00 18.8 19 Nordeste 30 Nordeste 0 1007.4 -0.1 88
2017-08-23 20:00:00 19 18 Nordeste 26 Nordeste 0 1007.1 -0.4 87
2017-08-23 19:00:00 20.1 14 Este 20 Nordeste 0 1007.4 -0.2 81
2017-08-23 18:00:00 19.3 16 Nordeste 26 Este 0 1007.5 -0.3 86
2017-08-23 17:00:00 20.1 13 Nordeste 23 Nordeste 0 1007.5 -0.3 79
2017-08-23 16:00:00 20.4 15 Nordeste 24 Este 0 1007.6 -0.5 78
2017-08-23 15:00:00 21.6 15 Este 27 Este 0 1007.8 -0.3 73
2017-08-23 14:00:00 20.6 17 Este 24 Este 0 1007.8 -0.1 74
2017-08-23 13:00:00 20.1 21 Sudeste 26 Sudeste 0 1008.1 0.2 77
2017-08-23 12:00:00 20.2 15 Este 22 Este 0 1008.1 0.5 78
2017-08-23 11:00:00 20.2 12 Sudeste 18 Sudeste 0 1007.9 0.6 79
2017-08-23 10:00:00 19.3 12 Este 19 Este 0 1007.9 0.9 82
2017-08-23 09:00:00 19.1 10 Este 16 Este 0 1007.6 0.5 83
2017-08-23 08:00:00 18.6 13 Sudeste 16 Sudeste 0 1007.3 0.3 83
2017-08-23 07:00:00 18.7 9 Este 12 Nordeste 0 1007 -0.5 83
2017-08-23 06:00:00 18.7 8 Nordeste 17 Este 0 1007.1 -0.5 84
2017-08-23 05:00:00 18.7 10 Este 12 Este 0 1007 -0.6 87
2017-08-23 04:00:00 18.6 8 Este 9 Este 0 1007.5 -0.9 85
2017-08-23 03:00:00 18.5 7 Este 16 Este 0 1007.6 -1.1 83
2017-08-23 02:00:00 18.6 8 Este 18 Este 0 1007.6 -1.1 82
2017-08-23 01:00:00 18.5 7 Sudeste 12 Sudeste 0 1008.4 0 84
2017-08-23 00:00:00 18.2 7 Sur 8 Sur 0 1008.7 0.9 85
2017-08-22 23:00:00 18.3 4 Sudoeste 12 Oeste 0 1008.7 1.3 85
2017-08-22 22:00:00 18.3 11 Oeste 24 Oeste 0 1008.4 1.7 85
2017-08-22 21:00:00 18.9 21 Oeste 31 Oeste 0 1007.8 0.8 82
2017-08-22 20:00:00 19.9 17 Oeste 39 Noroeste 0 1007.4 1 79
2017-08-22 19:00:00 20.1 37 Noroeste 44 Noroeste 0 1006.7 0.3 79
2017-08-22 18:00:00 22.3 21 Oeste 42 Noroeste 0 1007 0.2 71
2017-08-22 17:00:00 20.3 39 Noroeste 48 Noroeste 0 1006.4 -0.3 79
2017-08-22 16:00:00 19.7 43 Noroeste 51 Noroeste 0 1006.4 -0.1 78
2017-08-22 15:00:00 20.3 46 Oeste 56 Oeste 0 1006.8 0.2 74
2017-08-22 14:00:00 20.5 50 Oeste 64 Oeste 0 1006.7 0.3 71
2017-08-22 13:00:00 20.4 54 Oeste 59 Oeste 0 1006.5 0.5 70
2017-08-22 12:00:00 21 38 Oeste 44 Oeste 0 1006.6 0.9 67
2017-08-22 11:00:00 20.9 38 Oeste 46 Oeste 0 1006.4 1.4 70
2017-08-22 10:00:00 19.9 40 Oeste 44 Oeste 0 1006 1.5 74
2017-08-22 09:00:00 19 35 Oeste 52 Oeste 0 1005.7 1.9 80
2017-08-22 08:00:00 17.9 39 Oeste 52 Oeste 0 1005 1.5 84
2017-08-22 07:00:00 17.6 43 Oeste 50 Oeste 0 1004.5 1.3 85
2017-08-22 06:00:00 17.5 36 Oeste 43 Oeste 0 1003.8 0.6 84
2017-08-22 05:00:00 18.1 35 Oeste 45 Oeste 0 1003.5 0.1 80
2017-08-22 04:00:00 17.8 31 Oeste 39 Oeste 0 1003.2 -0.1 81
2017-08-22 03:00:00 16.5 26 Oeste 34 Oeste 0 1003.2 -0.1 86
2017-08-22 02:00:00 16.5 26 Oeste 39 Oeste 0 1003.4 0 85
2017-08-22 01:00:00 21 2 Oeste 11 Oeste 0 1003.3 0.3 67
2017-08-22 00:00:00 21.3 5 Nordeste 18 Oeste 0 1003.3 1 64